This is the latest recevied weather packets stored in our database for station/object SV1JCZ-13. If no packets are shown the sender has not sent any weather packets the latest 1 day(s).
| Time | Temp. | Humidity | Pressure | Rain* | Wind** | Luminosity | Snow |
|---|---|---|---|---|---|---|---|
| 1777999525 | 23.33° C | 35% | 0 hPa | 0 mm | 0 m/s | - | - |
| 1777999165 | 24.44° C | 32% | 0 hPa | 0 mm | 0 m/s | - | - |
| 1777998805 | 25° C | 31% | 0 hPa | 0 mm | 0 m/s | - | - |
| 1777998445 | 26.11° C | 29% | 0 hPa | 0 mm | 0 m/s | - | - |
| 1777998085 | 26.67° C | 28% | 0 hPa | 0 mm | 0 m/s | - | - |
| 1777997342 | 28.33° C | 23% | 0 hPa | 0 mm | 0 m/s | - | - |
| 1777996982 | 28.89° C | 19% | 0 hPa | 0 mm | 0 m/s | - | - |
| 1777996622 | 29.44° C | 18% | 0 hPa | 0 mm | 0 m/s | - | - |
| 1777996262 | 29.44° C | 18% | 0 hPa | 0 mm | 0 m/s | - | - |
| 1777995902 | 29.44° C | 18% | 0 hPa | 0 mm | 0 m/s | - | - |
| 1777995542 | 29.44° C | 19% | 0 hPa | 0 mm | 0 m/s | - | - |
| 1777995182 | 29.44° C | 19% | 0 hPa | 0 mm | 0 m/s | - | - |
| 1777994822 | 28.89° C | 19% | 0 hPa | 0 mm | 0 m/s | - | - |
| 1777994462 | 28.89° C | 20% | 0 hPa | 0 mm | 0 m/s | - | - |
| 1777994102 | 28.89° C | 20% | 0 hPa | 0 mm | 0 m/s | - | - |
| 1777993742 | 28.89° C | 20% | 0 hPa | 0 mm | 1.34 m/s, 7° | - | - |
| 1777993382 | 28.89° C | 19% | 0 hPa | 0 mm | 0 m/s | - | - |
| 1777993022 | 28.89° C | 19% | 0 hPa | 0 mm | 0 m/s | - | - |
| 1777992662 | 28.33° C | 19% | 0 hPa | 0 mm | 0 m/s | - | - |
| 1777992302 | 27.78° C | 20% | 0 hPa | 0 mm | 0 m/s | - | - |
| 1777991942 | 27.78° C | 20% | 0 hPa | 0 mm | 0 m/s | - | - |
| 1777991582 | 27.78° C | 19% | 0 hPa | 0 mm | 1.34 m/s, 326° | - | - |
| 1777991222 | 27.78° C | 19% | 0 hPa | 0 mm | 0 m/s | - | - |
| 1777990862 | 27.78° C | 20% | 0 hPa | 0 mm | 2.24 m/s, 350° | - | - |
| 1777990503 | 27.22° C | 21% | 0 hPa | 0 mm | 0 m/s | - | - |
* Rain latest hour (hover to see other rain measurements)
** Current wind speed in m/s (hover to see current wind gust speed)